createdAt,value
2022-09-14T00:00:51.593Z,0
2022-09-14T00:01:51.580Z,0
2022-09-14T00:02:51.582Z,0
2022-09-14T00:03:51.557Z,0
2022-09-14T00:04:51.555Z,0
2022-09-14T00:05:51.551Z,0
2022-09-14T00:06:51.540Z,0
2022-09-14T00:07:51.521Z,0
2022-09-14T00:08:51.509Z,0
2022-09-14T00:09:51.498Z,0
2022-09-14T00:10:51.487Z,0
2022-09-14T00:11:51.481Z,0
2022-09-14T00:12:51.465Z,0
2022-09-14T00:13:51.455Z,0
2022-09-14T00:14:51.450Z,0
2022-09-14T00:15:51.438Z,0
2022-09-14T00:16:51.428Z,0
2022-09-14T00:17:51.415Z,0
2022-09-14T00:18:51.406Z,0
2022-09-14T00:19:51.395Z,0
2022-09-14T00:20:51.391Z,0
2022-09-14T00:21:51.367Z,0
2022-09-14T00:22:51.359Z,0
2022-09-14T00:23:51.352Z,0
2022-09-14T00:24:51.341Z,0
2022-09-14T00:25:51.333Z,0
2022-09-14T00:26:51.336Z,0
2022-09-14T00:27:51.308Z,0
2022-09-14T00:28:51.301Z,0
2022-09-14T00:29:51.299Z,0
2022-09-14T00:30:51.274Z,0
2022-09-14T00:31:51.271Z,0
2022-09-14T00:32:51.263Z,0
2022-09-14T00:33:51.250Z,0
2022-09-14T00:34:51.258Z,0
2022-09-14T00:35:51.256Z,0
2022-09-14T00:36:51.240Z,0
2022-09-14T00:37:51.205Z,0
2022-09-14T00:38:51.198Z,0
2022-09-14T00:39:51.217Z,0
2022-09-14T00:40:51.171Z,0
2022-09-14T00:41:51.160Z,0
2022-09-14T00:42:51.153Z,0
2022-09-14T00:43:51.148Z,0
2022-09-14T00:44:51.154Z,0
2022-09-14T00:45:51.116Z,0
2022-09-14T00:46:51.110Z,0
2022-09-14T00:47:51.095Z,0
2022-09-14T00:48:51.086Z,0
2022-09-14T00:49:51.092Z,0
2022-09-14T00:50:51.084Z,0
2022-09-14T00:51:51.057Z,0
2022-09-14T00:52:51.065Z,0
2022-09-14T00:53:51.054Z,0
2022-09-14T00:54:51.024Z,0
2022-09-14T00:55:51.016Z,0
2022-09-14T00:56:51.004Z,0
2022-09-14T00:57:50.993Z,0
2022-09-14T00:58:50.988Z,0
2022-09-14T00:59:50.987Z,0
2022-09-14T01:00:50.967Z,0
2022-09-14T01:01:50.987Z,0
2022-09-14T01:02:50.944Z,0
2022-09-14T01:03:50.938Z,0
2022-09-14T01:04:50.916Z,0
2022-09-14T01:05:50.929Z,0
2022-09-14T01:06:50.895Z,0
2022-09-14T01:07:50.906Z,0
2022-09-14T01:08:50.874Z,0
2022-09-14T01:09:50.869Z,0
2022-09-14T01:10:50.856Z,0
2022-09-14T01:11:50.844Z,0
2022-09-14T01:12:50.856Z,0
2022-09-14T01:13:50.836Z,0
2022-09-14T01:14:50.813Z,0
2022-09-14T01:15:50.824Z,0
2022-09-14T01:16:50.792Z,0
2022-09-14T01:17:50.779Z,0
2022-09-14T01:18:50.782Z,0
2022-09-14T01:19:50.758Z,0
2022-09-14T01:20:50.748Z,0
2022-09-14T01:21:50.753Z,0
2022-09-14T01:22:50.749Z,0
2022-09-14T01:23:50.718Z,0
2022-09-14T01:24:50.715Z,0
2022-09-14T01:25:50.696Z,0
2022-09-14T01:26:50.684Z,0
2022-09-14T01:27:50.687Z,0
2022-09-14T01:28:50.676Z,0
2022-09-14T01:29:50.664Z,0
2022-09-14T01:30:50.642Z,0
2022-09-14T01:31:50.634Z,0
2022-09-14T01:32:50.625Z,0
2022-09-14T01:33:50.612Z,0
2022-09-14T01:34:50.616Z,0
2022-09-14T01:35:50.599Z,0
2022-09-14T01:36:50.579Z,0
2022-09-14T01:37:50.591Z,0
2022-09-14T01:38:50.558Z,0
2022-09-14T01:39:50.565Z,0
2022-09-14T01:40:50.546Z,0
2022-09-14T01:41:50.528Z,0
2022-09-14T01:42:50.522Z,0
2022-09-14T01:43:50.516Z,0
2022-09-14T01:44:50.492Z,0
2022-09-14T01:45:50.496Z,0
2022-09-14T01:46:50.470Z,0
2022-09-14T01:47:50.518Z,0
2022-09-14T01:48:50.465Z,0
2022-09-14T01:49:50.442Z,0
2022-09-14T01:50:50.433Z,0
2022-09-14T01:51:50.426Z,0
2022-09-14T01:52:50.423Z,0
2022-09-14T01:53:50.413Z,0
2022-09-14T01:54:50.385Z,0
2022-09-14T01:55:50.377Z,0
2022-09-14T01:56:50.369Z,0
2022-09-14T01:57:50.354Z,0
2022-09-14T01:58:50.347Z,0
2022-09-14T01:59:50.337Z,0
2022-09-14T02:00:50.324Z,0
2022-09-14T02:01:50.313Z,0
2022-09-14T02:02:50.309Z,0
2022-09-14T02:03:50.293Z,0
2022-09-14T02:04:50.296Z,0
2022-09-14T02:05:50.288Z,0
2022-09-14T02:06:50.260Z,0
2022-09-14T02:07:50.264Z,0
2022-09-14T02:08:50.241Z,0
2022-09-14T02:09:50.233Z,0
2022-09-14T02:10:50.216Z,0
2022-09-14T02:11:50.207Z,0
2022-09-14T02:12:50.193Z,0
2022-09-14T02:13:50.219Z,0
2022-09-14T02:14:50.180Z,0
2022-09-14T02:15:50.159Z,0
2022-09-14T02:16:50.157Z,0
2022-09-14T02:17:50.147Z,0
2022-09-14T02:18:50.131Z,0
2022-09-14T02:19:50.119Z,0
2022-09-14T02:20:50.112Z,0
2022-09-14T02:21:50.112Z,0
2022-09-14T02:22:50.083Z,0
2022-09-14T02:23:50.075Z,0
2022-09-14T02:24:50.064Z,0
2022-09-14T02:25:50.050Z,0
2022-09-14T02:26:50.068Z,0
2022-09-14T02:27:50.033Z,0
2022-09-14T02:28:50.021Z,0
2022-09-14T02:29:50.007Z,0
2022-09-14T02:30:50.018Z,0
2022-09-14T02:31:49.989Z,0
2022-09-14T02:32:49.974Z,0
2022-09-14T02:33:49.976Z,0
2022-09-14T02:34:49.971Z,0
2022-09-14T02:35:49.940Z,0
2022-09-14T02:36:49.934Z,0
2022-09-14T02:37:49.930Z,0
2022-09-14T02:38:49.911Z,0
2022-09-14T02:39:49.904Z,0
2022-09-14T02:40:49.898Z,0
2022-09-14T02:41:49.880Z,0
2022-09-14T02:42:49.870Z,0
2022-09-14T02:43:49.864Z,0
2022-09-14T02:44:49.853Z,0
2022-09-14T02:45:49.855Z,0
2022-09-14T02:46:49.825Z,0
2022-09-14T02:47:49.826Z,0
2022-09-14T02:48:49.804Z,0
2022-09-14T02:49:49.804Z,0
2022-09-14T02:50:49.787Z,0
2022-09-14T02:51:49.777Z,0
2022-09-14T02:52:49.774Z,0
2022-09-14T02:53:49.749Z,0
2022-09-14T02:54:49.765Z,0
2022-09-14T02:55:49.738Z,0
2022-09-14T02:56:49.719Z,0
2022-09-14T02:57:49.707Z,0
2022-09-14T02:58:49.700Z,0
2022-09-14T02:59:49.704Z,0
2022-09-14T03:00:49.679Z,0
2022-09-14T03:01:49.667Z,0
2022-09-14T03:02:49.660Z,0
2022-09-14T03:03:49.644Z,0
2022-09-14T03:04:49.705Z,0
2022-09-14T03:05:49.617Z,0
2022-09-14T03:06:49.609Z,0
2022-09-14T03:07:49.597Z,0
2022-09-14T03:08:49.584Z,0
2022-09-14T03:09:49.573Z,0
2022-09-14T03:10:49.574Z,0
2022-09-14T03:11:49.551Z,0
2022-09-14T03:12:49.545Z,0
2022-09-14T03:13:49.530Z,0
2022-09-14T03:14:49.538Z,0
2022-09-14T03:15:49.512Z,0
2022-09-14T03:16:49.500Z,0
2022-09-14T03:17:49.491Z,0
2022-09-14T03:18:49.482Z,0
2022-09-14T03:19:49.469Z,0
2022-09-14T03:20:49.509Z,0
2022-09-14T03:21:49.449Z,0
2022-09-14T03:22:49.432Z,0
2022-09-14T03:23:49.551Z,0
2022-09-14T03:24:49.423Z,0
2022-09-14T03:25:49.400Z,0
2022-09-14T03:26:49.391Z,0
2022-09-14T03:27:49.375Z,0
2022-09-14T03:28:49.367Z,0
2022-09-14T03:29:49.377Z,0
2022-09-14T03:30:49.378Z,0
2022-09-14T03:31:49.333Z,0
2022-09-14T03:32:49.336Z,0
2022-09-14T03:33:49.337Z,0
2022-09-14T03:34:49.306Z,0
2022-09-14T03:35:49.304Z,0
2022-09-14T03:36:49.285Z,0
2022-09-14T03:37:49.276Z,0
2022-09-14T03:38:49.275Z,0
2022-09-14T03:39:49.243Z,0
2022-09-14T03:40:49.271Z,0
2022-09-14T03:41:49.223Z,0
2022-09-14T03:42:49.232Z,0
2022-09-14T03:43:49.206Z,0
2022-09-14T03:44:49.195Z,0
2022-09-14T03:45:49.183Z,0
2022-09-14T03:46:49.183Z,0
2022-09-14T03:47:49.156Z,0
2022-09-14T03:48:49.147Z,0
2022-09-14T03:49:49.141Z,0
2022-09-14T03:50:49.149Z,0
2022-09-14T03:51:49.116Z,0
2022-09-14T03:52:49.122Z,0
2022-09-14T03:53:49.118Z,0
2022-09-14T03:54:49.084Z,0
2022-09-14T03:55:49.084Z,0
2022-09-14T03:56:49.080Z,0
2022-09-14T03:57:49.074Z,0
2022-09-14T03:58:49.044Z,0
2022-09-14T03:59:49.061Z,0
2022-09-14T04:00:49.023Z,0
2022-09-14T04:01:49.025Z,0
2022-09-14T04:02:49.007Z,0
2022-09-14T04:03:48.989Z,0
2022-09-14T04:04:48.992Z,0
2022-09-14T04:05:48.974Z,0
2022-09-14T04:06:48.963Z,0
2022-09-14T04:07:48.949Z,0
2022-09-14T04:08:48.947Z,0
2022-09-14T04:09:48.931Z,0
2022-09-14T04:10:48.922Z,0
2022-09-14T04:11:48.931Z,0
2022-09-14T04:12:48.891Z,0
2022-09-14T04:13:48.887Z,0
2022-09-14T04:14:48.871Z,0
2022-09-14T04:15:48.866Z,0
2022-09-14T04:16:48.869Z,0
2022-09-14T04:17:48.837Z,0
2022-09-14T04:18:48.866Z,0
2022-09-14T04:19:48.830Z,0
2022-09-14T04:20:48.810Z,0
2022-09-14T04:21:48.800Z,0
2022-09-14T04:22:48.791Z,0
2022-09-14T04:23:48.791Z,0
2022-09-14T04:24:48.771Z,0
2022-09-14T04:25:48.758Z,0
2022-09-14T04:26:48.749Z,0
2022-09-14T04:27:48.740Z,0
2022-09-14T04:28:48.746Z,0
2022-09-14T04:29:48.720Z,0
2022-09-14T04:30:48.711Z,0
2022-09-14T04:31:48.702Z,0
2022-09-14T04:32:48.688Z,0
2022-09-14T04:33:48.676Z,0
2022-09-14T04:34:48.664Z,0
2022-09-14T04:35:48.670Z,0
2022-09-14T04:36:48.639Z,0
2022-09-14T04:37:48.633Z,0
2022-09-14T04:38:48.625Z,0
2022-09-14T04:39:48.646Z,0
2022-09-14T04:40:48.640Z,0
2022-09-14T04:41:48.592Z,0
2022-09-14T04:42:48.595Z,0
2022-09-14T04:43:48.573Z,0
2022-09-14T04:44:48.562Z,0
2022-09-14T04:45:48.550Z,0
2022-09-14T04:46:48.551Z,0
2022-09-14T04:47:48.548Z,0
2022-09-14T04:48:48.514Z,0
2022-09-14T04:49:48.503Z,0
2022-09-14T04:50:48.493Z,0
2022-09-14T04:51:48.494Z,0
2022-09-14T04:52:48.474Z,0
2022-09-14T04:53:48.461Z,0
2022-09-14T04:54:48.469Z,0
2022-09-14T04:55:48.461Z,0
2022-09-14T04:56:48.433Z,0
2022-09-14T04:57:48.434Z,0
2022-09-14T04:58:48.452Z,0
2022-09-14T04:59:48.395Z,0
2022-09-14T05:00:48.391Z,0
2022-09-14T05:01:48.383Z,0
2022-09-14T05:02:48.367Z,0
2022-09-14T05:03:48.368Z,0
2022-09-14T05:04:48.364Z,0
2022-09-14T05:05:48.340Z,0
2022-09-14T05:06:48.349Z,0
2022-09-14T05:07:48.308Z,0
2022-09-14T05:08:48.308Z,0
2022-09-14T05:09:48.290Z,0
2022-09-14T05:10:48.277Z,0
2022-09-14T05:11:48.273Z,0
2022-09-14T05:12:48.256Z,0
2022-09-14T05:13:48.244Z,0
2022-09-14T05:14:48.237Z,0
2022-09-14T05:15:48.253Z,5.62
2022-09-14T05:16:48.263Z,5.62
2022-09-14T05:17:48.204Z,5.62
2022-09-14T05:18:48.185Z,5.62
2022-09-14T05:19:48.185Z,5.62
2022-09-14T05:20:48.178Z,5.62
2022-09-14T05:21:48.161Z,5.62
2022-09-14T05:22:48.149Z,5.62
2022-09-14T05:23:48.140Z,5.62
2022-09-14T05:24:48.127Z,5.62
2022-09-14T05:25:48.118Z,5.62
2022-09-14T05:26:48.113Z,5.62
2022-09-14T05:27:48.095Z,5.62
2022-09-14T05:28:48.211Z,5.62
2022-09-14T05:29:48.074Z,11.25
2022-09-14T05:30:48.067Z,11.25
2022-09-14T05:31:48.069Z,11.25
2022-09-14T05:32:48.037Z,11.25
2022-09-14T05:33:48.032Z,11.25
2022-09-14T05:34:48.029Z,11.25
2022-09-14T05:35:48.008Z,11.25
2022-09-14T05:36:47.997Z,11.25
2022-09-14T05:37:47.984Z,11.25
2022-09-14T05:38:47.987Z,11.25
2022-09-14T05:39:47.966Z,11.25
2022-09-14T05:40:47.961Z,11.25
2022-09-14T05:41:47.941Z,11.25
2022-09-14T05:42:47.931Z,11.25
2022-09-14T05:43:47.924Z,11.25
2022-09-14T05:44:47.915Z,11.25
2022-09-14T05:45:47.908Z,11.25
2022-09-14T05:46:47.946Z,11.25
2022-09-14T05:47:47.882Z,11.25
2022-09-14T05:48:47.955Z,11.25
2022-09-14T05:49:47.868Z,11.25
2022-09-14T05:50:47.874Z,11.25
2022-09-14T05:51:47.839Z,11.25
2022-09-14T05:52:47.833Z,11.25
2022-09-14T05:53:47.832Z,16.88
2022-09-14T05:54:47.808Z,16.88
2022-09-14T05:55:47.793Z,16.88
2022-09-14T05:56:47.811Z,16.88
2022-09-14T05:57:47.771Z,22.5
2022-09-14T05:58:47.794Z,22.5
2022-09-14T05:59:47.750Z,22.5
2022-09-14T06:00:47.760Z,22.5
2022-09-14T06:01:47.725Z,22.5
2022-09-14T06:02:47.715Z,22.5
2022-09-14T06:03:47.710Z,22.5
2022-09-14T06:04:47.697Z,22.5
2022-09-14T06:05:47.684Z,22.5
2022-09-14T06:06:47.672Z,28.12
2022-09-14T06:07:47.663Z,28.12
2022-09-14T06:08:47.658Z,28.12
2022-09-14T06:09:47.639Z,22.5
2022-09-14T06:10:47.627Z,22.5
2022-09-14T06:11:47.625Z,22.5
2022-09-14T06:12:47.617Z,22.5
2022-09-14T06:13:47.605Z,22.5
2022-09-14T06:14:47.594Z,22.5
2022-09-14T06:15:47.598Z,28.12
2022-09-14T06:16:47.563Z,28.12
2022-09-14T06:17:47.556Z,28.12
2022-09-14T06:18:49.414Z,28.12
2022-09-14T06:19:52.790Z,28.12
2022-09-14T06:20:47.528Z,33.75
2022-09-14T06:21:47.509Z,33.75
2022-09-14T06:22:47.505Z,33.75
2022-09-14T06:23:47.491Z,33.75
2022-09-14T06:24:47.480Z,33.75
2022-09-14T06:25:47.469Z,33.75
2022-09-14T06:26:47.466Z,33.75
2022-09-14T06:27:47.456Z,33.75
2022-09-14T06:28:47.435Z,39.38
2022-09-14T06:29:47.435Z,39.38
2022-09-14T06:30:47.412Z,39.38
2022-09-14T06:31:47.405Z,39.38
2022-09-14T06:32:47.392Z,39.38
2022-09-14T06:33:47.379Z,39.38
2022-09-14T06:34:47.392Z,39.38
2022-09-14T06:35:47.361Z,39.38
2022-09-14T06:36:47.349Z,39.38
2022-09-14T06:37:47.340Z,33.75
2022-09-14T06:38:47.329Z,33.75
2022-09-14T06:39:47.312Z,33.75
2022-09-14T06:40:47.304Z,39.38
2022-09-14T06:41:47.297Z,39.38
2022-09-14T06:42:47.283Z,39.38
2022-09-14T06:43:47.275Z,39.38
2022-09-14T06:44:47.260Z,39.38
2022-09-14T06:45:47.253Z,39.38
2022-09-14T06:46:47.236Z,39.38
2022-09-14T06:47:47.228Z,39.38
2022-09-14T06:48:47.215Z,45
2022-09-14T06:49:47.226Z,45
2022-09-14T06:50:47.194Z,45
2022-09-14T06:51:47.185Z,45
2022-09-14T06:52:47.215Z,45
2022-09-14T06:53:47.163Z,50.62
2022-09-14T06:54:47.155Z,50.62
2022-09-14T06:55:47.142Z,50.62
2022-09-14T06:56:47.130Z,50.62
2022-09-14T06:57:47.123Z,50.62
2022-09-14T06:58:47.148Z,50.62
2022-09-14T06:59:47.092Z,50.62
2022-09-14T07:00:47.084Z,50.62
2022-09-14T07:01:47.077Z,50.62
2022-09-14T07:02:47.062Z,50.62
2022-09-14T07:03:47.060Z,50.62
2022-09-14T07:04:47.039Z,50.62
2022-09-14T07:05:47.033Z,50.62
2022-09-14T07:06:47.039Z,50.62
2022-09-14T07:07:47.012Z,50.62
2022-09-14T07:08:47.014Z,50.62
2022-09-14T07:09:47.003Z,50.62
2022-09-14T07:10:47.039Z,50.62
2022-09-14T07:11:46.979Z,50.62
2022-09-14T07:12:46.955Z,50.62
2022-09-14T07:13:46.943Z,50.62
2022-09-14T07:14:46.943Z,50.62
2022-09-14T07:15:46.924Z,50.62
2022-09-14T07:16:46.909Z,45
2022-09-14T07:17:46.905Z,45
2022-09-14T07:18:46.891Z,45
2022-09-14T07:19:47.841Z,39.38
2022-09-14T07:20:46.867Z,39.38
2022-09-14T07:21:46.860Z,45
2022-09-14T07:22:46.847Z,45
2022-09-14T07:23:46.835Z,45
2022-09-14T07:24:46.824Z,45
2022-09-14T07:25:46.815Z,45
2022-09-14T07:26:46.803Z,45
2022-09-14T07:27:46.795Z,45
2022-09-14T07:28:46.791Z,50.62
2022-09-14T07:29:46.768Z,50.62
2022-09-14T07:30:46.760Z,56.25
2022-09-14T07:31:46.751Z,56.25
2022-09-14T07:32:46.749Z,56.25
2022-09-14T07:33:46.724Z,61.88
2022-09-14T07:34:46.724Z,61.88
2022-09-14T07:35:46.713Z,67.5
2022-09-14T07:36:46.695Z,67.5
2022-09-14T07:37:46.687Z,73.12
2022-09-14T07:38:46.675Z,73.12
2022-09-14T07:39:46.663Z,73.12
2022-09-14T07:40:46.656Z,78.75
2022-09-14T07:41:46.645Z,90
2022-09-14T07:42:46.632Z,95.62
2022-09-14T07:43:46.623Z,101.25
2022-09-14T07:44:46.624Z,112.5
2022-09-14T07:45:46.606Z,118.12
2022-09-14T07:46:46.594Z,118.12
2022-09-14T07:47:46.579Z,123.75
2022-09-14T07:48:46.570Z,123.75
2022-09-14T07:49:46.563Z,123.75
2022-09-14T07:50:46.549Z,118.12
2022-09-14T07:51:46.537Z,118.12
2022-09-14T07:52:46.538Z,118.12
2022-09-14T07:53:46.517Z,118.12
2022-09-14T07:54:46.506Z,112.5
2022-09-14T07:55:46.493Z,112.5
2022-09-14T07:56:46.482Z,112.5
2022-09-14T07:57:46.484Z,101.25
2022-09-14T07:58:46.468Z,95.62
2022-09-14T07:59:46.451Z,84.38
2022-09-14T08:00:46.444Z,78.75
2022-09-14T08:01:46.435Z,73.12
2022-09-14T08:02:46.444Z,67.5
2022-09-14T08:03:46.416Z,67.5
2022-09-14T08:04:46.401Z,67.5
2022-09-14T08:05:46.388Z,73.12
2022-09-14T08:06:46.375Z,73.12
2022-09-14T08:07:46.366Z,78.75
2022-09-14T08:08:46.359Z,84.38
2022-09-14T08:09:46.351Z,90
2022-09-14T08:10:46.340Z,101.25
2022-09-14T08:11:46.331Z,112.5
2022-09-14T08:12:46.347Z,123.75
2022-09-14T08:13:46.305Z,129.38
2022-09-14T08:14:46.294Z,135
2022-09-14T08:15:46.291Z,140.62
2022-09-14T08:16:46.276Z,135
2022-09-14T08:17:46.269Z,135
2022-09-14T08:18:46.250Z,135
2022-09-14T08:19:46.240Z,123.75
2022-09-14T08:20:46.234Z,112.5
2022-09-14T08:21:46.239Z,106.88
2022-09-14T08:22:46.211Z,101.25
2022-09-14T08:23:46.205Z,101.25
2022-09-14T08:24:46.193Z,101.25
2022-09-14T08:25:46.176Z,101.25
2022-09-14T08:26:46.170Z,95.62
2022-09-14T08:27:46.162Z,95.62
2022-09-14T08:28:46.150Z,90
2022-09-14T08:29:46.137Z,90
2022-09-14T08:30:46.179Z,90
2022-09-14T08:31:46.139Z,84.38
2022-09-14T08:32:46.104Z,78.75
2022-09-14T08:33:46.095Z,73.12
2022-09-14T08:34:46.086Z,67.5
2022-09-14T08:35:46.075Z,67.5
2022-09-14T08:36:46.081Z,67.5
2022-09-14T08:37:46.068Z,67.5
2022-09-14T08:38:46.097Z,73.12
2022-09-14T08:39:46.033Z,73.12
2022-09-14T08:40:46.024Z,73.12
2022-09-14T08:41:46.025Z,73.12
2022-09-14T08:42:46.010Z,78.75
2022-09-14T08:43:46.052Z,78.75
2022-09-14T08:44:46.010Z,78.75
2022-09-14T08:45:46.025Z,78.75
2022-09-14T08:46:46.034Z,84.38
2022-09-14T08:47:45.957Z,84.38
2022-09-14T08:48:45.943Z,90
2022-09-14T08:49:45.943Z,95.62
2022-09-14T08:50:45.917Z,95.62
2022-09-14T08:51:45.913Z,101.25
2022-09-14T08:52:45.892Z,101.25
2022-09-14T08:53:45.884Z,106.88
2022-09-14T08:54:45.883Z,112.5
2022-09-14T08:55:45.862Z,118.12
2022-09-14T08:56:45.856Z,129.38
2022-09-14T08:57:45.862Z,140.62
2022-09-14T08:58:45.852Z,140.62
2022-09-14T08:59:45.819Z,146.25
2022-09-14T09:00:45.810Z,146.25
2022-09-14T09:01:45.814Z,146.25
2022-09-14T09:02:45.787Z,146.25
2022-09-14T09:03:45.794Z,140.62
2022-09-14T09:07:45.768Z,129.38
2022-09-14T09:08:45.728Z,118.12
2022-09-14T09:09:45.712Z,112.5
2022-09-14T09:10:45.703Z,112.5
2022-09-14T09:11:45.718Z,118.12
2022-09-14T09:12:45.693Z,129.38
2022-09-14T09:13:45.684Z,140.62
2022-09-14T09:14:45.658Z,151.88
2022-09-14T09:15:45.648Z,163.12
2022-09-14T09:16:45.635Z,174.38
2022-09-14T09:17:45.632Z,185.62
2022-09-14T09:18:45.629Z,185.62
2022-09-14T09:19:45.605Z,196.88
2022-09-14T09:20:45.603Z,202.5
2022-09-14T09:21:45.584Z,191.25
2022-09-14T09:22:45.581Z,174.38
2022-09-14T09:23:45.563Z,157.5
2022-09-14T09:24:45.566Z,146.25
2022-09-14T09:25:45.578Z,140.62
2022-09-14T09:26:45.547Z,135
2022-09-14T09:27:45.524Z,129.38
2022-09-14T09:28:45.510Z,123.75
2022-09-14T09:29:50.521Z,112.5
2022-09-14T09:30:46.493Z,101.25
2022-09-14T09:31:45.509Z,90
2022-09-14T09:32:45.488Z,78.75
2022-09-14T09:33:45.497Z,67.5
2022-09-14T09:34:45.447Z,67.5
2022-09-14T09:35:45.437Z,61.88
2022-09-14T09:36:45.439Z,61.88
2022-09-14T09:37:45.416Z,61.88
2022-09-14T09:38:45.415Z,56.25
2022-09-14T09:39:45.403Z,56.25
2022-09-14T09:40:45.387Z,56.25
2022-09-14T09:41:45.387Z,56.25
2022-09-14T09:42:45.370Z,56.25
2022-09-14T09:43:45.362Z,56.25
2022-09-14T09:44:45.349Z,56.25
2022-09-14T09:45:45.339Z,50.62
2022-09-14T09:46:45.372Z,50.62
2022-09-14T09:47:45.308Z,50.62
2022-09-14T09:48:45.294Z,50.62
2022-09-14T09:49:45.327Z,50.62
2022-09-14T09:50:45.277Z,50.62
2022-09-14T09:51:45.263Z,50.62
2022-09-14T09:52:45.249Z,50.62
2022-09-14T09:53:45.254Z,50.62
2022-09-14T09:54:45.233Z,50.62
2022-09-14T09:55:45.218Z,50.62
2022-09-14T09:56:45.220Z,50.62
2022-09-14T09:57:45.196Z,56.25
2022-09-14T09:58:45.189Z,56.25
2022-09-14T09:59:45.185Z,56.25
2022-09-14T10:00:45.213Z,61.88
2022-09-14T10:01:45.156Z,61.88
2022-09-14T10:02:45.140Z,61.88
2022-09-14T10:03:45.132Z,61.88
2022-09-14T10:04:45.119Z,61.88
2022-09-14T10:05:45.113Z,61.88
2022-09-14T10:06:45.101Z,67.5
2022-09-14T10:07:45.088Z,67.5
2022-09-14T10:08:45.100Z,73.12
2022-09-14T10:09:45.068Z,73.12
2022-09-14T10:10:45.063Z,78.75
2022-09-14T10:11:45.058Z,73.12
2022-09-14T10:12:45.032Z,73.12
2022-09-14T10:13:45.030Z,67.5
2022-09-14T10:14:45.012Z,67.5
2022-09-14T10:15:45.004Z,67.5
2022-09-14T10:16:44.990Z,67.5
2022-09-14T10:17:44.978Z,67.5
2022-09-14T10:18:44.973Z,67.5
2022-09-14T10:19:44.960Z,67.5
2022-09-14T10:20:44.949Z,73.12
2022-09-14T10:21:44.938Z,73.12
2022-09-14T10:22:44.932Z,73.12
2022-09-14T10:23:44.923Z,78.75
2022-09-14T10:24:44.926Z,78.75
2022-09-14T10:25:44.907Z,78.75
2022-09-14T10:26:44.903Z,78.75
2022-09-14T10:27:44.882Z,78.75
2022-09-14T10:28:44.873Z,84.38
2022-09-14T10:29:44.970Z,84.38
2022-09-14T10:30:44.864Z,90
2022-09-14T10:31:44.839Z,95.62
2022-09-14T10:32:44.825Z,95.62
2022-09-14T10:33:44.821Z,95.62
2022-09-14T10:34:44.807Z,95.62
2022-09-14T10:35:44.814Z,95.62
2022-09-14T10:36:44.788Z,95.62
2022-09-14T10:37:44.790Z,101.25
2022-09-14T10:38:44.769Z,101.25
2022-09-14T10:39:44.751Z,101.25
2022-09-14T10:40:44.746Z,101.25
2022-09-14T10:41:44.734Z,95.62
2022-09-14T10:42:44.725Z,95.62
2022-09-14T10:43:44.725Z,95.62
2022-09-14T10:44:44.726Z,90
2022-09-14T10:45:44.706Z,84.38
2022-09-14T10:46:44.694Z,84.38
2022-09-14T10:47:44.673Z,84.38
2022-09-14T10:48:44.657Z,78.75
2022-09-14T10:49:44.650Z,78.75
2022-09-14T10:50:44.660Z,73.12
2022-09-14T10:51:44.624Z,73.12
2022-09-14T10:52:44.616Z,67.5
2022-09-14T10:53:44.618Z,67.5
2022-09-14T10:54:44.592Z,67.5
2022-09-14T10:55:44.601Z,61.88
2022-09-14T10:56:44.581Z,61.88
2022-09-14T10:57:44.562Z,61.88
2022-09-14T10:58:44.559Z,61.88
2022-09-14T10:59:44.550Z,61.88
2022-09-14T11:00:44.532Z,61.88
2022-09-14T11:01:44.521Z,61.88
2022-09-14T11:02:44.512Z,61.88
2022-09-14T11:03:44.503Z,61.88
2022-09-14T11:04:44.494Z,61.88
2022-09-14T11:05:44.479Z,56.25
2022-09-14T11:06:44.468Z,56.25
2022-09-14T11:07:44.471Z,56.25
2022-09-14T11:08:44.447Z,56.25
2022-09-14T11:09:44.439Z,56.25
2022-09-14T11:10:44.429Z,56.25
2022-09-14T11:11:44.435Z,56.25
2022-09-14T11:12:44.408Z,56.25
2022-09-14T11:13:44.410Z,56.25
2022-09-14T11:14:44.383Z,56.25
2022-09-14T11:15:44.378Z,56.25
2022-09-14T11:16:44.369Z,56.25
2022-09-14T11:17:44.356Z,56.25
2022-09-14T11:18:44.347Z,56.25
2022-09-14T11:19:44.334Z,56.25
2022-09-14T11:20:44.325Z,56.25
2022-09-14T11:21:44.314Z,50.62
2022-09-14T11:22:44.315Z,50.62
2022-09-14T11:23:44.287Z,50.62
2022-09-14T11:24:44.282Z,50.62
2022-09-14T11:25:44.269Z,50.62
2022-09-14T11:26:44.271Z,50.62
2022-09-14T11:27:44.249Z,50.62
2022-09-14T11:28:44.236Z,50.62
2022-09-14T11:29:44.232Z,50.62
2022-09-14T11:30:44.235Z,50.62
2022-09-14T11:31:44.205Z,50.62
2022-09-14T11:32:44.193Z,50.62
2022-09-14T11:33:44.190Z,50.62
2022-09-14T11:34:44.185Z,50.62
2022-09-14T11:35:44.165Z,50.62
2022-09-14T11:36:44.167Z,50.62
2022-09-14T11:37:44.167Z,50.62
2022-09-14T11:38:44.158Z,50.62
2022-09-14T11:39:44.125Z,50.62
2022-09-14T11:40:44.112Z,50.62
2022-09-14T11:41:44.137Z,50.62
2022-09-14T11:42:44.093Z,50.62
2022-09-14T11:43:44.079Z,50.62
2022-09-14T11:44:44.071Z,50.62
2022-09-14T11:45:44.081Z,50.62
2022-09-14T11:46:44.056Z,50.62
2022-09-14T11:47:44.042Z,50.62
2022-09-14T11:48:44.041Z,50.62
2022-09-14T11:49:44.015Z,50.62
2022-09-14T11:50:44.005Z,50.62
2022-09-14T11:51:43.995Z,50.62
2022-09-14T11:52:43.985Z,50.62
2022-09-14T11:53:43.984Z,50.62
2022-09-14T11:54:43.989Z,50.62
2022-09-14T11:55:43.969Z,50.62
2022-09-14T11:56:43.950Z,50.62
2022-09-14T11:57:43.929Z,50.62
2022-09-14T11:58:43.953Z,50.62
2022-09-14T11:59:43.917Z,50.62
2022-09-14T12:00:43.942Z,50.62
2022-09-14T12:01:43.913Z,50.62
2022-09-14T12:02:43.897Z,50.62
2022-09-14T12:03:43.894Z,50.62
2022-09-14T12:04:43.859Z,50.62
2022-09-14T12:05:43.874Z,50.62
2022-09-14T12:06:43.840Z,50.62
2022-09-14T12:07:43.827Z,50.62
2022-09-14T12:08:43.817Z,50.62
2022-09-14T12:09:43.814Z,45
2022-09-14T12:10:43.797Z,45
2022-09-14T12:11:43.793Z,45
2022-09-14T12:12:43.809Z,45
2022-09-14T12:13:43.778Z,45
2022-09-14T12:14:43.762Z,45
2022-09-14T12:15:43.788Z,45
2022-09-14T12:16:43.733Z,45
2022-09-14T12:17:43.731Z,45
2022-09-14T12:18:43.712Z,45
2022-09-14T12:19:43.711Z,45
2022-09-14T12:20:43.700Z,45
2022-09-14T12:21:43.689Z,45
2022-09-14T12:22:43.687Z,45
2022-09-14T12:23:43.670Z,45
2022-09-14T12:24:43.661Z,45
2022-09-14T12:25:44.370Z,45
2022-09-14T12:26:43.630Z,45
2022-09-14T12:27:43.626Z,45
2022-09-14T12:28:43.612Z,45
2022-09-14T12:29:43.599Z,45
2022-09-14T12:30:43.589Z,45
2022-09-14T12:31:43.587Z,45
2022-09-14T12:32:43.572Z,45
2022-09-14T12:33:43.557Z,45
2022-09-14T12:34:43.547Z,45
2022-09-14T12:35:43.541Z,45
2022-09-14T12:36:43.529Z,45
2022-09-14T12:37:43.522Z,39.38
2022-09-14T12:38:43.528Z,39.38
2022-09-14T12:39:43.499Z,39.38
2022-09-14T12:40:43.482Z,39.38
2022-09-14T12:41:43.476Z,39.38
2022-09-14T12:42:43.465Z,39.38
2022-09-14T12:43:43.472Z,39.38
2022-09-14T12:44:43.465Z,45
2022-09-14T12:45:43.434Z,45
2022-09-14T12:46:43.418Z,45
2022-09-14T12:47:43.412Z,45
2022-09-14T12:48:43.397Z,45
2022-09-14T12:49:43.388Z,45
2022-09-14T12:50:43.378Z,45
2022-09-14T12:51:43.377Z,50.62
2022-09-14T12:52:43.370Z,50.62
2022-09-14T12:53:43.346Z,50.62
2022-09-14T12:54:43.342Z,50.62
2022-09-14T12:55:43.323Z,50.62
2022-09-14T12:56:43.316Z,50.62
2022-09-14T12:57:43.320Z,50.62
2022-09-14T12:58:43.292Z,50.62
2022-09-14T12:59:43.282Z,50.62
2022-09-14T13:00:43.276Z,50.62
2022-09-14T13:01:43.263Z,50.62
2022-09-14T13:02:43.252Z,50.62
2022-09-14T13:03:43.241Z,50.62
2022-09-14T13:04:43.228Z,50.62
2022-09-14T13:05:43.223Z,50.62
2022-09-14T13:06:43.209Z,50.62
2022-09-14T13:07:43.204Z,50.62
2022-09-14T13:08:43.189Z,50.62
2022-09-14T13:09:43.191Z,50.62
2022-09-14T13:10:43.163Z,50.62
2022-09-14T13:11:43.156Z,50.62
2022-09-14T13:12:43.183Z,50.62
2022-09-14T13:13:43.134Z,56.25
2022-09-14T13:14:43.122Z,56.25
2022-09-14T13:15:43.112Z,56.25
2022-09-14T13:16:43.135Z,56.25
2022-09-14T13:17:43.091Z,56.25
2022-09-14T13:18:43.085Z,61.88
2022-09-14T13:19:43.065Z,61.88
2022-09-14T13:20:43.063Z,61.88
2022-09-14T13:21:43.065Z,61.88
2022-09-14T13:22:43.036Z,67.5
2022-09-14T13:23:43.032Z,67.5
2022-09-14T13:24:43.019Z,67.5
2022-09-14T13:25:43.002Z,67.5
2022-09-14T13:26:42.990Z,67.5
2022-09-14T13:27:42.995Z,67.5
2022-09-14T13:28:42.967Z,67.5
2022-09-14T13:29:42.975Z,67.5
2022-09-14T13:30:42.961Z,67.5
2022-09-14T13:31:42.983Z,67.5
2022-09-14T13:32:42.932Z,67.5
2022-09-14T13:33:42.921Z,67.5
2022-09-14T13:34:42.904Z,67.5
2022-09-14T13:35:42.894Z,67.5
2022-09-14T13:36:42.882Z,61.88
2022-09-14T13:37:42.906Z,61.88
2022-09-14T13:38:42.861Z,61.88
2022-09-14T13:39:42.851Z,61.88
2022-09-14T13:40:42.841Z,61.88
2022-09-14T13:41:42.842Z,56.25
2022-09-14T13:42:42.813Z,61.88